KGAI

Details ICAO KGAI (GAI)
Name MONTGOMERY CO AIRPARK
Region United States
Timezone America/New_York (UTC-5.0)
Plans Departing 36
Arriving 12
Stats Elevation 539 ft / 164 m (AMSL)
Location 39.168286° -77.165966°
Runways 1
Magnetic Variation 10.813° W
Sunrise 2017-12-16 12:23:05 UTC / 2017-12-16 07:23:05 Local
Sunset 2017-12-16 21:48:29 UTC / 2017-12-16 16:48:29 Local
Advertisement - Login to hide

Runways

ID Width Length Bearing (true) Bearing (mag) Surface Threshold Offset Overrun Length
14 75 ft / 23 m 4,233 ft / 1,290 m 127.52° 138.33° Asphalt 0 ft / 0 m 0 ft / 0 m
32 75 ft / 23 m 4,233 ft / 1,290 m 307.53° 318.34° Asphalt 0 ft / 0 m 0 ft / 0 m

Map

Weather


0- 5 10 15 20 25 30 35+ Temperature / ° C

Clouds and Precipitation
Forecast for 2017-12-17 00:00 UTC. Updated 2 hours ago

Ground ~20,000 ft ~40,000 ft Winds

METAR

KGAI 161956Z AUTO 25010KT 10SM CLR 07/M06 A3006 RMK AO2 SLP211 T00671056

TAF

Not found

Frequencies

Recorded 128.27 MHz AWOS 3
Clearance 121.60 MHz POTOMAC CLNC DEL
Unicom 123.07 MHz CTAF/UNICOM
Approach 128.70 MHz POTOMAC APP/DEP
Warning: Do not use this data for real-world aviation or navigation. No guarantee of current accuracy is given.